Reno (UNR), Valley Road, Nevada Weather observations

Data are for observation ending at time listed.
 Day   Time    Ave.   Ave.  Ave.  Vector   Max.    Total    Solar   Rl      Baro.   Ave.  
  of    of     Air    Rel.  Wind   Wind    Wind   Precip.   Rad.    in      Pres.   Soil  
Year   Day     Temp.  Hum.  Speed  Dir.    Gust                                     Temp. 
2015   (PST)    F      %     mph   deg.    mph      in.     W/m2    W/m2     mb.     F   
-----------------------------------------------------------------------------------------
  29   15:20   54.8    49    7.0    72     10.9     0.00     326     319    857.5   43.0
  29   15:30   54.8    49    6.8    83     11.4     0.00     307     319    857.5   43.1
  29   15:40   54.0    50    7.5    64     11.7     0.00     108     317    857.5   43.2
  29   15:50   53.2    51    6.7    82     14.3     0.00      61     310    857.6   43.3
  29   16:00   52.6    52    6.7    90     13.1     0.00      61     313    857.8   43.4
  29   16:10   52.5    52    6.2    89     11.0     0.00      69     322    858.0   43.5
  29   16:20   52.4    52    5.2    82     10.4     0.00      62     337    858.2   43.6
  29   16:30   52.2    53    6.0    83     10.9     0.00      48     344    858.2   43.7
  29   16:40   52.0    53    5.4    86      9.7     0.00      34     346    858.4   43.8
  29   16:50   51.9    54    4.5    78      9.5     0.00      17     350    858.5   43.8
  29   17:00   51.5    54    4.8    67      9.1     0.00      10     349    858.6   43.9
  29   17:10   51.2    54    4.2    68      9.2     0.00       5     347    858.7   43.9
  29   17:20   50.9    55    5.4    67      9.8     0.00       2     346    858.8   43.9
  29   17:30   50.7    56    3.7    82      7.2     0.00       1     351    859.0   43.9
  29   17:40   50.4    56    3.2    71      6.5     0.00       0     352    859.1   44.0
  29   17:50   50.3    57    3.6    56      6.1     0.00       0     351    859.3   44.0
  29   18:00   50.1    57    3.9    43      6.9     0.00       0     350    859.5   44.0
  29   18:10   49.8    58    4.6    38      8.0     0.00       0     348    859.5   44.0
  29   18:20   49.6    58    5.5    41      8.1     0.00       0     345    859.6   44.0
  29   18:30   49.4    59    4.9    41      8.2     0.00       0     347    859.7   44.0
  29   18:40   49.2    59    3.5    44      6.1     0.00       0     341    859.8   43.9
  29   18:50   48.9    60    4.4    33      6.2     0.00       0     342    859.9   43.9
  29   19:00   48.8    60    4.4    28      5.8     0.00       0     346    860.0   43.9
  29   19:10   48.7    60    3.9    28      5.8     0.00       0     346    860.0   43.9
  29   19:20   48.6    60    3.7    33      5.3     0.00       0     346    860.1   43.9
  29   19:30   48.5    60    3.9    35      5.4     0.00       0     346    860.2   43.9
  29   19:40   48.3    61    3.0    33      4.5     0.00       0     346    860.2   43.8
  29   19:50   48.1    61    2.8    37      4.8     0.00       0     345    860.2   43.8
  29   20:00   48.0    61    2.3    30      3.4     0.00       0     343    860.2   43.8
  29   20:10   48.0    61    1.4    10      2.8     0.00       0     343    860.4   43.8
  29   20:20   47.8    62    3.0    11      4.8     0.00       0     350    860.5   43.8
  29   20:30   47.7    62    2.9     4      4.7     0.00       0     347    860.5   43.7
  29   20:40   47.6    62    3.1    40      4.2     0.00       0     342    860.5   43.7
  29   20:50   47.6    62    3.1    34      5.0     0.00       0     342    860.5   43.7
  29   21:00   47.3    63    3.0    15      4.3     0.00       0     342    860.5   43.6
  29   21:10   47.0    64    3.3    11      5.3     0.00       0     342    860.5   43.6
  29   21:20   46.8    64    3.0    10      4.7     0.00       0     341    860.5   43.6
  29   21:30   46.6    64    1.8   355      3.0     0.00       0     334    860.5   43.6
  29   21:40   46.3    65    2.0   343      2.8     0.00       0     330    860.5   43.5
  29   21:50   46.0    66    1.8    16      3.4     0.00       0     330    860.6   43.5
  29   22:00   46.0    66    2.7    14      5.0     0.00       0     329    860.5   43.5
  29   22:10   45.8    66    2.3   359      3.6     0.00       0     323    860.6   43.4
  29   22:20   45.6    66    2.6   352      3.9     0.00       0     318    860.6   43.4
  29   22:30   45.3    67    2.7   331      4.0     0.00       0     315    860.7   43.4
  29   22:40   45.2    67    2.7   350      4.0     0.00       0     314    860.7   43.4
  29   22:50   45.0    67    1.5    14      2.6     0.00       0     308    860.8   43.3
  29   23:00   44.1    69    0.4   319      1.3     0.00       0     307    860.8   43.3
  29   23:10   43.6    71    1.0   276      1.9     0.00       0     309    860.9   43.2
  29   23:20   43.7    70    1.0   273      1.7     0.00       0     302    861.0   43.2
  29   23:30   42.9    72    1.7   320      2.7     0.00       0     302    861.0   43.2
  29   23:40   41.9    74    1.8     6      2.5     0.00       0     306    861.1   43.1
  29   23:50   41.5    74    1.2   320      2.4     0.00       0     315    861.1   43.1
  30    0:00   42.0    74    1.1   254      2.0     0.00       0     321    861.1   43.0
  30    0:10   43.3    71    1.9   246      2.9     0.00       0     325    861.1   43.0
  30    0:20   43.2    71    1.0   252      2.7     0.00       0     325    861.0   42.9
  30    0:30   42.4    73    0.2   222      1.8     0.00       0     326    860.9   42.8
  30    0:40   42.7    72    2.2   226      3.8     0.00       0     326    860.9   42.8
  30    0:50   42.8    72    3.4   238      4.7     0.00       0     326    860.9   42.7
  30    1:00   42.6    72    2.8   242      3.8     0.00       0     326    860.9   42.7
  30    1:10   42.4    73    2.2   236      3.1     0.00       0     327    860.8   42.6
  30    1:20   42.3    73    1.4   238      3.4     0.00       0     333    860.8   42.6
  30    1:30   42.0    74    0.7   282      2.3     0.00       0     333    860.8   42.5
  30    1:40   41.9    75    0.6   216      2.7     0.00       0     333    860.8   42.5
  30    1:50   42.1    74    1.7   229      2.7     0.00       0     331    860.8   42.4
  30    2:00   42.1    73    1.4   238      2.6     0.00       0     326    860.8   42.4
  30    2:10   41.8    74    0.0   233      0.8     0.00       0     333    860.8   42.4
  30    2:20   41.7    74    0.6   198      1.8     0.00       0     331    860.8   42.3
  30    2:30   41.6    74    1.5   247      3.5     0.00       0     328    860.7   42.3
  30    2:40   41.8    74    2.0   259      3.6     0.00       0     318    860.6   42.3
  30    2:50   41.2    76    0.4   342      1.4     0.00       0     314    860.5   42.2
  30    3:00   41.0    77    0.0     0      0.0     0.00       0     320    860.5   42.2
  30    3:10   40.7    77    0.0     0      0.0     0.00       0     314    860.4   42.2
  30    3:20   40.2    79    0.0     0      0.0     0.00       0     314    860.5   42.2
  30    3:30   40.1    79    0.2   308      1.3     0.00       0     317    860.4   42.1
  30    3:40   40.2    79    0.0     0      0.0     0.00       0     317    860.4   42.1
  30    3:50   40.1    78    0.2   321      1.6     0.00       0     318    860.3   42.1
  30    4:00   39.8    79    0.0   301      0.8     0.00       0     319    860.3   42.0
  30    4:10   39.5    80    0.0     0      0.0     0.00       0     318    860.3   42.0
  30    4:20   39.7    80    0.0     0      0.0     0.00       0     318    860.2   42.0
  30    4:30   39.6    80    0.2   316      1.7     0.00       0     322    860.3   41.9
  30    4:40   39.6    80    0.8   342      2.0     0.00       0     320    860.3   41.9
  30    4:50   39.9    79    1.6   280      2.5     0.00       0     318    860.2   41.9
  30    5:00   40.0    79    0.5   300      2.0     0.00       0     316    860.1   41.8
  30    5:10   39.8    79    0.9   202      2.6     0.00       0     310    860.0   41.8
  30    5:20   40.3    78    2.0   229      3.1     0.00       0     309    860.0   41.8
  30    5:30   39.6    79    0.1   259      1.4     0.00       0     300    860.1   41.7
  30    5:40   39.1    81    0.2    23      1.6     0.00       0     305    860.1   41.7
  30    5:50   38.7    82    0.3   316      2.5     0.00       0     306    860.1   41.7
  30    6:00   38.6    82    0.1   309      1.9     0.00       0     305    860.2   41.6
  30    6:10   38.2    83    1.9   330      2.6     0.00       0     291    860.2   41.6
  30    6:20   37.9    84    0.4   328      1.9     0.00       0     286    860.3   41.6
  30    6:30   37.3    85    0.0     0      0.0     0.00       0     282    860.3   41.5
  30    6:40   36.6    87    1.0   301      2.2     0.00       0     283    860.4   41.5
  30    6:50   36.4    87    0.9   308      2.4     0.00       0     284    860.4   41.4
  30    7:00   36.1    88    1.2   315      2.7     0.00       0     288    860.5   41.4
  30    7:10   36.2    88    0.3   278      1.6     0.00       2     286    860.5   41.4
  30    7:20   36.3    87    0.4   298      1.7     0.00       4     285    860.5   41.3
  30    7:30   36.0    88    0.9   332      2.4     0.00       9     278    860.5   41.3
  30    7:40   36.3    88    0.1     4      1.7     0.00      14     278    860.5   41.2
  30    7:50   37.4    88    1.6   343      3.7     0.00      25     281    860.5   41.1
  30    8:00   39.6    83    2.8   336      4.8     0.00      32     277    860.6   41.1
  30    8:10   40.2    81    3.6   344      6.7     0.00      35     276    860.6   41.0
  30    8:20   40.7    79    3.5   354      6.0     0.00      49     274    860.6   41.0
  30    8:30   41.0    78    4.5   345      8.2     0.00      79     275    860.6   40.9
  30    8:40   42.3    76    4.1   339      6.9     0.00     151     288    860.6   40.9
  30    8:50   43.0    76    4.2   348      7.0     0.00     186     309    860.5   40.8
  30    9:00   44.3    73    4.2     9      7.8     0.00     201     313    860.3   40.8
  30    9:10   44.8    72    2.3    61      4.5     0.00     189     305    860.1   40.7
  30    9:20   45.1    70    4.7   349      7.4     0.00     274     315    860.0   40.7
  30    9:30   45.0    70    6.4   349     10.5     0.00     233     328    859.8   40.7
  30    9:40   45.9    68    5.8   354      9.2     0.00     352     340    859.6   40.7
  30    9:50   45.6    68    6.3   333      9.7     0.00     271     341    859.4   40.7
  30   10:00   45.8    68    4.8    12      9.6     0.00     216     334    859.3   40.7
  30   10:10   46.0    69    5.8    33      8.2     0.00     219     326    859.1   40.8
  30   10:20   45.9    69    5.2    27      9.2     0.00     175     313    859.1   40.9
  30   10:30   46.4    67    5.6    49      9.1     0.00     387     300    859.1   40.9
  30   10:40   47.0    64    4.6    46      8.3     0.00     300     296    859.0   41.0
  30   10:50   47.8    63    7.7    27     12.6     0.00     509     299    858.9   41.1
  30   11:00   47.8    62    7.4    40     12.7     0.00     504     300    858.8   41.2
  30   11:10   48.4    62    6.6    50     10.6     0.00     516     302    858.6   41.3
  30   11:20   48.4    62    4.9    37      9.5     0.00     521     303    858.3   41.4
  30   11:30   48.8    61    6.1     9     11.3     0.00     542     306    857.9   41.5
  30   11:40   49.0    61    6.0    16     11.6     0.00     590     310    857.6   41.7
  30   11:50   49.5    60    5.1    31     11.4     0.00     565     309    857.4   41.8
  30   12:00   50.1    58    6.6    48     10.8     0.00     506     310    857.2   41.9
  30   12:10   49.9    58    6.2    63     12.7     0.00     463     308    856.9   42.1
  30   12:20   50.4    57    5.2    96      9.7     0.00     534     312    856.7   42.3
  30   12:30   50.9    56    6.2    38     12.1     0.00     593     321    856.4   42.5
  30   12:40   50.0    57    6.2    30     11.9     0.00     285     315    856.2   42.6
  30   12:50   51.2    55    3.3    76      8.1     0.00     567     319    856.0   42.8
  30   13:00   51.3    54    4.3    49      9.2     0.00     300     315    855.9   43.0
  30   13:10   51.8    52    2.6   167      7.9     0.00     581     315    855.7   43.2
  30   13:20   52.6    50    5.8    57     13.1     0.00     565     320    855.4   43.4
  30   13:30   52.8    50    1.5   350      4.8     0.00     567     318    855.2   43.5
  30   13:40   53.0    48    5.6    23     12.1     0.00     436     319    855.0   43.7
  30   13:50   52.1    49    5.8    31     12.4     0.00     465     311    854.8   43.8
  30   14:00   52.0    49    4.2   352      9.5     0.00     492     312    854.7   44.0
  30   14:10   52.3    48    6.7    22     13.0     0.00     358     312    854.6   44.1
  30   14:20   52.0    48    6.7    26     14.1     0.00     315     309    854.5   44.2
  30   14:30   52.6    46    7.2    48     13.4     0.00     362     306    854.5   44.4
  30   14:40   52.3    46    6.8    51     11.5     0.00     400     305    854.5   44.5
  30   14:50   52.2    46    9.2    36     15.3     0.00     376     306    854.5   44.6
  30   15:00   52.2    43    7.4    42     12.1     0.00     354     303    854.5   44.7
  30   15:10   52.7    45    6.6    54     11.2     0.00     330     304    854.5   44.8

Return to Reno (UNR), Nevada graphs page.


Western Regional Climate Center,wrcc@dri.edu